Air Resources Laboratory banner image
Air Resources Laboratory web site National Oceanic and Atmospheric Administration (NOAA)

al metar


KANB 170253Z AUTO 00000KT 10SM CLR 23/21 A2996 RMK AO2 SLP137 T02280206 50009=
KAUO 170256Z AUTO 00000KT 10SM CLR 24/20 A2997 RMK AO2 SLP157 T02440200 51010=
KBFM 170253Z AUTO 29003KT 10SM -RA SCT042 SCT060 BKN075 24/23 A2999 RMK AO2 LTG
 DSNT W TSB06 SLP155 P0006 60008 T02390228 55002=
KBHM 170253Z 34003KT 10SM SCT120 24/19 A2999 RMK AO2 SLP146 T02390189 50008=
KDCU 170253Z AUTO 01004KT 10SM FEW042 BKN100 22/20 A3000 RMK AO2 SLP153
 T02220200 51007 TSNO=
KDHN 170253Z AUTO 00000KT 10SM CLR 26/24 A2995 RMK AO2 SLP136 T02610244 51007=
KEET 170253Z AUTO 00000KT 10SM CLR 25/21 A2996 RMK AO2 SLP136 T02500206 50006=
KGAD 170256Z AUTO 34003KT 10SM CLR 22/21 A2998 RMK AO2 SLP150 T02220211 50008 $=
KGZH 170253Z AUTO VRB03KT 10SM CLR 26/21 A2994 RMK AO2 SLP136 T02560206 51007=
KHSV 170253Z 01005KT 10SM FEW043 OVC120 23/19 A3000 RMK AO2 SLP151 T02330194
 51009=
KLOR 170255Z AUTO 27003KT 10SM CLR 26/23 A2991 RMK AO2 RAB14E30 SLPNO P0000
 60000 T02590230 52007=
KMGM 170253Z 36003KT 10SM CLR 28/21 A2992 RMK AO2 SLP129 T02780211 51007=
KMOB 170256Z 25005KT 10SM -RA SCT045 SCT200 23/21 A2999 RMK AO2 LTG DSNT SW
 RAB08 TSB07E37 SLP152 CB DSNT ALQDS P0002 60020 T02330211 55004 $=
KMSL 170253Z AUTO 02003KT 10SM SCT110 24/20 A3000 RMK AO2 SLP153 T02390200
 53007=
KMXF 170256Z AUTO 01003KT 10SM CLR 26/20 A2990 RMK AO2 SLP126 T02610197 50008=
KOZR 170255Z AUTO 26005KT 10SM CLR 25/22 A2991 RMK AO2 SLPNO T02530224 51007=
KSXS 170255Z AUTO 28006KT 9SM CLR 26/24 A2991 RMK AO2 SLPNO T02580236 52007=
KTCL 170253Z AUTO 04003KT 10SM CLR 26/21 A2994 RMK AO2 SLP136 T02610206 50006=
KTOI 170253Z AUTO 00000KT 10SM CLR 26/21 A2993 RMK AO2 SLP130 T02610211 51005=